Boxford, Massachusetts
Current Conditions -  °F | °C
As of 10:53 AM on Friday 24 Oct 2014 (Local Time) from KBVY Reporting Station
Haze Haze  
Wind Chill: 51°   Ceiling: 900
Heat Index: 51°   Visibility: 3mi
Dew Point: 48°   Wind: 10mph
Humidity: 89%   Direction: 330°NNW
Pressure: 29.69"   Gusts: NA
Location:  42.66°N, 71°W
Report Text: KBVY 241453Z 33009KT 3SM BR BKN009 OVC016 11/09 A2969 RMK AO2 RAB29E40 SLP051 P0000 60000 T01060089 50003
Loading
Personal Weather Stations






























Interactive Weather Map
Tropical Storm Tracking
New forecast layout! Learn more

10-Day Weather Forecast

Advertisements
Track Severe Weather on mobile